Time;durP1;ratioP1;P1;durP2;ratioP2;P2;SDS_P1;SDS_P2;PMS_P1;PMS_P2;Temp;Humidity;BMP_temperature;BMP_pressure;BME280_temperature;BME280_humidity;BME280_pressure;Samples;Min_cycle;Max_cycle;Signal;HPM_P1;HPM_P2
2024/04/09 00:01:13;;;;;;;9.02;4.43;;;19.60;91.00;;;;;;5409844;26;20008;-73
2024/04/09 00:04:00;;;;;;;11.32;4.55;;;19.50;91.10;;;;;;5409077;26;20081;-74
2024/04/09 00:06:46;;;;;;;10.52;5.43;;;19.50;91.20;;;;;;5404724;26;20003;-74
2024/04/09 00:09:32;;;;;;;7.93;4.78;;;19.40;91.20;;;;;;5413522;26;20027;-73
2024/04/09 00:12:21;;;;;;;7.97;4.72;;;19.50;91.30;;;;;;5410487;26;20447;-74
2024/04/09 00:15:07;;;;;;;10.63;5.22;;;19.40;91.40;;;;;;5385868;26;20490;-73
2024/04/09 00:17:56;;;;;;;11.07;4.43;;;19.40;91.50;;;;;;5415737;26;20043;-74
2024/04/09 00:20:43;;;;;;;12.25;4.95;;;19.40;91.60;;;;;;5388565;26;20462;-73
2024/04/09 00:23:29;;;;;;;8.50;4.85;;;19.40;91.60;;;;;;5405755;26;20007;-74
2024/04/09 00:26:16;;;;;;;8.25;5.05;;;19.30;91.70;;;;;;5415195;26;20018;-74
2024/04/09 00:29:02;;;;;;;9.73;5.65;;;19.20;91.80;;;;;;5417606;26;20351;-67
2024/04/09 00:31:48;;;;;;;9.30;4.95;;;19.20;91.90;;;;;;5409977;26;20014;-67
2024/04/09 00:34:34;;;;;;;8.43;5.45;;;19.20;92.00;;;;;;5406722;26;20009;-67
2024/04/09 00:37:20;;;;;;;10.10;4.93;;;19.20;92.10;;;;;;5396551;26;20327;-66
2024/04/09 00:40:09;;;;;;;6.25;4.80;;;19.20;92.20;;;;;;5405548;26;20945;-66
2024/04/09 00:42:57;;;;;;;10.20;5.20;;;19.20;92.20;;;;;;5399572;26;20364;-67
2024/04/09 00:45:45;;;;;;;7.00;4.50;;;19.10;92.20;;;;;;5396505;26;20086;-67
2024/04/09 00:48:31;;;;;;;12.00;5.53;;;19.10;92.30;;;;;;5407750;26;20014;-67
2024/04/09 00:51:18;;;;;;;8.48;4.65;;;19.10;92.30;;;;;;5411007;26;20327;-67
2024/04/09 00:54:04;;;;;;;11.55;4.90;;;19.10;92.40;;;;;;5394894;26;20011;-67
2024/04/09 00:56:50;;;;;;;9.30;5.00;;;19.10;92.40;;;;;;5413579;26;20014;-67
2024/04/09 00:59:37;;;;;;;17.45;5.50;;;19.00;92.50;;;;;;5407980;26;20439;-67
2024/04/09 01:02:23;;;;;;;15.98;5.50;;;19.00;92.60;;;;;;5398180;26;20504;-67
2024/04/09 01:05:12;;;;;;;11.27;5.32;;;19.00;92.60;;;;;;5354730;26;20000;-69
2024/04/09 01:07:58;;;;;;;7.10;4.72;;;19.00;92.70;;;;;;5403054;26;20019;-69
2024/04/09 01:10:44;;;;;;;7.70;4.60;;;19.00;92.70;;;;;;5403458;26;20018;-70
2024/04/09 01:13:30;;;;;;;11.77;5.10;;;18.90;92.80;;;;;;5414051;26;20003;-70
2024/04/09 01:16:16;;;;;;;14.60;5.32;;;18.90;92.90;;;;;;5407046;26;20116;-70
2024/04/09 01:19:02;;;;;;;7.90;4.32;;;18.90;92.90;;;;;;5405060;26;19999;-70
2024/04/09 01:21:48;;;;;;;9.73;4.70;;;18.90;93.00;;;;;;5408526;26;20073;-70
2024/04/09 01:24:37;;;;;;;11.60;5.35;;;18.80;93.00;;;;;;5405880;26;19999;-70
2024/04/09 01:27:25;;;;;;;11.30;5.05;;;18.80;93.10;;;;;;5412801;26;20015;-70
2024/04/09 01:30:12;;;;;;;7.93;5.45;;;18.80;93.10;;;;;;5403144;26;20000;-70
2024/04/09 01:32:58;;;;;;;12.88;5.97;;;18.80;93.20;;;;;;5413954;26;19999;-72
2024/04/09 01:35:46;;;;;;;9.73;6.35;;;18.80;93.20;;;;;;5391247;26;20471;-73
2024/04/09 01:38:32;;;;;;;11.32;5.60;;;18.80;93.30;;;;;;5402845;26;19999;-73
2024/04/09 01:41:18;;;;;;;9.57;4.82;;;18.70;93.30;;;;;;5406454;26;20074;-72
2024/04/09 01:44:04;;;;;;;10.07;5.65;;;18.70;93.40;;;;;;5411976;26;19999;-72
2024/04/09 01:46:50;;;;;;;8.15;4.97;;;18.70;93.40;;;;;;5413698;26;20023;-72
2024/04/09 01:49:36;;;;;;;10.88;5.05;;;18.70;93.50;;;;;;5397587;26;20027;-72
2024/04/09 01:52:22;;;;;;;8.40;4.32;;;18.70;93.60;;;;;;5372656;26;20001;-71
2024/04/09 01:55:08;;;;;;;7.57;4.95;;;18.70;93.70;;;;;;5386098;26;19995;-71
2024/04/09 01:57:55;;;;;;;8.05;5.05;;;18.60;93.70;;;;;;5402151;26;19992;-71
2024/04/09 02:00:41;;;;;;;8.05;4.38;;;18.60;93.70;;;;;;5398163;26;19999;-71
2024/04/09 02:03:27;;;;;;;12.48;5.53;;;18.60;93.80;;;;;;5370609;26;20007;-71
2024/04/09 02:06:16;;;;;;;13.15;5.15;;;18.60;93.80;;;;;;5393806;26;20010;-71
2024/04/09 02:09:03;;;;;;;11.50;4.90;;;18.60;93.90;;;;;;5409470;26;20041;-72
2024/04/09 02:11:49;;;;;;;11.18;5.63;;;18.50;94.00;;;;;;5409794;26;20447;-71
2024/04/09 02:14:36;;;;;;;11.85;4.93;;;18.50;94.00;;;;;;5392514;26;19993;-71
2024/04/09 02:17:21;;;;;;;10.90;5.32;;;18.50;94.20;;;;;;5414970;26;20000;-71
2024/04/09 02:20:10;;;;;;;7.40;4.93;;;18.50;94.20;;;;;;5409592;26;20015;-71
2024/04/09 02:22:55;;;;;;;11.73;5.30;;;18.50;94.30;;;;;;5411752;26;20467;-71
2024/04/09 02:25:42;;;;;;;7.45;5.00;;;18.40;94.30;;;;;;5411145;26;20471;-71
2024/04/09 02:28:29;;;;;;;10.23;4.72;;;18.40;94.40;;;;;;5411819;26;20475;-72
2024/04/09 02:31:15;;;;;;;8.63;4.75;;;18.40;94.40;;;;;;5356389;26;19996;-70
2024/04/09 02:34:01;;;;;;;10.43;5.10;;;18.40;94.40;;;;;;5404358;26;20037;-71
2024/04/09 02:36:47;;;;;;;8.40;4.93;;;18.30;94.60;;;;;;5423841;26;19992;-72
2024/04/09 02:39:33;;;;;;;9.32;5.60;;;18.30;94.50;;;;;;5417059;26;20212;-72
2024/04/09 02:42:19;;;;;;;7.78;5.43;;;18.30;94.70;;;;;;5415568;26;20434;-72
2024/04/09 02:45:05;;;;;;;8.55;4.63;;;18.30;94.70;;;;;;5406064;26;20010;-72
2024/04/09 02:47:51;;;;;;;10.50;5.38;;;18.30;94.80;;;;;;5413787;26;20008;-73
2024/04/09 02:50:37;;;;;;;14.02;5.75;;;18.20;94.80;;;;;;5387531;26;20386;-73
2024/04/09 02:53:24;;;;;;;9.85;5.55;;;18.20;94.90;;;;;;5412473;26;20008;-73
2024/04/09 02:56:11;;;;;;;14.68;5.40;;;18.20;95.00;;;;;;5405257;26;20425;-73
2024/04/09 02:58:57;;;;;;;10.00;6.60;;;18.10;95.10;;;;;;5397042;26;20106;-72
2024/04/09 03:01:43;;;;;;;9.52;5.70;;;18.20;95.10;;;;;;5410243;26;20000;-72
2024/04/09 03:04:29;;;;;;;10.13;5.28;;;18.20;95.20;;;;;;5385852;26;20003;-72
2024/04/09 03:07:15;;;;;;;8.30;5.25;;;18.20;95.30;;;;;;5415992;26;20004;-73
2024/04/09 03:10:01;;;;;;;7.03;5.30;;;18.10;95.30;;;;;;5419237;26;20529;-73
2024/04/09 03:12:47;;;;;;;11.57;6.15;;;18.10;95.30;;;;;;5407900;26;20014;-73
2024/04/09 03:15:33;;;;;;;9.35;5.65;;;18.10;95.40;;;;;;5417086;26;20004;-73
2024/04/09 03:18:19;;;;;;;7.53;5.25;;;18.10;95.50;;;;;;5395249;26;20010;-73
2024/04/09 03:21:05;;;;;;;9.63;5.68;;;18.00;95.60;;;;;;5407416;26;20006;-73
2024/04/09 03:23:50;;;;;;;8.63;4.82;;;18.00;95.60;;;;;;5416899;26;20024;-73
2024/04/09 03:26:37;;;;;;;7.75;5.07;;;18.00;95.70;;;;;;5413772;26;19999;-73
2024/04/09 03:29:24;;;;;;;9.95;5.30;;;18.00;95.80;;;;;;5381698;26;19992;-71
2024/04/09 03:32:10;;;;;;;9.98;5.28;;;18.00;95.90;;;;;;5386061;26;20503;-71
2024/04/09 03:34:55;;;;;;;7.82;5.13;;;18.00;95.90;;;;;;5409780;26;20026;-71
2024/04/09 03:37:41;;;;;;;7.72;4.78;;;18.00;96.00;;;;;;5401993;26;20004;-71
2024/04/09 03:40:27;;;;;;;8.68;5.63;;;18.00;96.00;;;;;;5381286;26;20004;-71
2024/04/09 03:43:13;;;;;;;8.93;5.50;;;18.00;96.00;;;;;;5391775;26;20014;-71
2024/04/09 03:46:07;;;;;;;9.52;5.43;;;18.00;96.10;;;;;;5405901;26;20015;-71
2024/04/09 03:48:53;;;;;;;8.38;5.63;;;17.90;96.40;;;;;;5413864;26;20003;-71
2024/04/09 03:51:39;;;;;;;7.75;5.22;;;17.90;96.20;;;;;;5413461;26;19999;-71
2024/04/09 03:54:25;;;;;;;9.73;5.15;;;17.90;96.30;;;;;;5413842;26;19996;-70
2024/04/09 03:57:11;;;;;;;9.68;5.72;;;17.90;96.40;;;;;;5417197;26;20014;-70
2024/04/09 03:59:57;;;;;;;8.18;5.03;;;17.90;96.50;;;;;;5410043;26;20436;-71
2024/04/09 04:02:42;;;;;;;8.93;6.07;;;17.90;96.50;;;;;;5413276;26;20007;-71
2024/04/09 04:05:29;;;;;;;9.15;5.72;;;17.90;96.60;;;;;;5408442;26;20442;-70
2024/04/09 04:08:15;;;;;;;7.97;5.20;;;17.90;96.60;;;;;;5417060;26;20028;-71
2024/04/09 04:11:06;;;;;;;7.55;5.85;;;17.90;96.60;;;;;;5413971;26;20000;-71
2024/04/09 04:13:52;;;;;;;7.35;5.32;;;17.80;96.70;;;;;;5381457;26;20004;-71
2024/04/09 04:16:37;;;;;;;9.93;5.40;;;17.90;96.70;;;;;;5402219;26;19991;-71
2024/04/09 04:19:23;;;;;;;14.35;5.30;;;17.80;96.80;;;;;;5411061;26;20031;-71
2024/04/09 04:22:09;;;;;;;13.55;5.97;;;17.90;96.90;;;;;;5407274;26;20304;-71
2024/04/09 04:24:55;;;;;;;12.07;7.05;;;17.80;96.90;;;;;;5412336;26;20338;-71
2024/04/09 04:27:44;;;;;;;10.15;5.72;;;17.80;97.00;;;;;;5378297;26;20451;-71
2024/04/09 04:30:30;;;;;;;12.38;6.13;;;17.80;97.10;;;;;;5414513;26;20073;-70
2024/04/09 04:33:16;;;;;;;8.15;5.05;;;17.80;97.10;;;;;;5406033;26;19995;-71
2024/04/09 04:36:02;;;;;;;6.95;5.70;;;17.80;97.20;;;;;;5415722;26;20451;-71
2024/04/09 04:38:48;;;;;;;8.52;4.93;;;17.80;97.20;;;;;;5409716;26;19995;-71
2024/04/09 04:41:34;;;;;;;8.52;5.03;;;17.80;97.20;;;;;;5410627;26;19995;-71
2024/04/09 04:44:20;;;;;;;15.25;5.40;;;17.80;97.30;;;;;;5405340;26;20444;-71
2024/04/09 04:47:06;;;;;;;11.55;6.03;;;17.80;97.30;;;;;;5414969;26;20350;-71
2024/04/09 04:49:52;;;;;;;10.65;5.30;;;17.90;97.40;;;;;;5414750;26;20004;-72
2024/04/09 04:52:38;;;;;;;7.70;5.20;;;17.90;97.40;;;;;;5415516;26;20402;-72
2024/04/09 04:55:24;;;;;;;9.50;5.55;;;17.90;97.50;;;;;;5413857;26;20008;-72
2024/04/09 04:58:10;;;;;;;9.35;5.82;;;17.90;97.50;;;;;;5402128;26;20011;-72
2024/04/09 05:00:56;;;;;;;10.10;5.78;;;17.90;97.60;;;;;;5383547;26;19996;-71
2024/04/09 05:03:42;;;;;;;7.95;5.60;;;17.90;97.60;;;;;;5414583;26;20082;-72
2024/04/09 05:06:28;;;;;;;9.35;6.30;;;18.00;97.70;;;;;;5389636;26;20010;-72
2024/04/09 05:09:14;;;;;;;6.40;4.65;;;18.00;97.70;;;;;;5415052;26;20019;-72
2024/04/09 05:12:00;;;;;;;8.02;5.43;;;18.00;97.70;;;;;;5413525;26;20031;-71
2024/04/09 05:14:47;;;;;;;6.00;4.60;;;18.10;97.70;;;;;;5413112;26;20000;-72
2024/04/09 05:17:33;;;;;;;7.30;5.78;;;18.10;97.80;;;;;;5419536;26;20010;-73
2024/04/09 05:20:25;;;;;;;9.23;4.78;;;18.10;97.80;;;;;;5422496;26;19996;-72
2024/04/09 05:23:11;;;;;;;9.73;5.07;;;18.10;97.80;;;;;;5414884;26;20354;-71
2024/04/09 05:25:57;;;;;;;9.48;4.93;;;18.20;97.80;;;;;;5406572;26;20012;-71
2024/04/09 05:28:43;;;;;;;7.28;5.22;;;18.20;97.80;;;;;;5406377;26;19999;-70
2024/04/09 05:31:29;;;;;;;10.65;5.30;;;18.30;97.90;;;;;;5403403;26;20320;-70
2024/04/09 05:34:15;;;;;;;10.48;5.30;;;18.30;97.80;;;;;;5385645;26;20007;-69
2024/04/09 05:37:02;;;;;;;7.78;5.35;;;18.30;97.90;;;;;;5398572;26;20524;-70
2024/04/09 05:39:48;;;;;;;6.68;4.55;;;18.30;97.90;;;;;;5411825;26;20073;-70
2024/04/09 05:42:35;;;;;;;8.93;4.50;;;18.30;97.90;;;;;;5413157;26;19995;-69
2024/04/09 05:45:21;;;;;;;7.68;5.47;;;18.40;98.00;;;;;;5386077;26;19996;-70
2024/04/09 05:48:09;;;;;;;8.00;5.85;;;18.40;98.00;;;;;;5407778;26;20003;-69
2024/04/09 05:50:55;;;;;;;13.70;5.50;;;18.50;98.00;;;;;;5407170;26;20079;-72
2024/04/09 05:53:41;;;;;;;8.68;5.30;;;18.60;98.00;;;;;;5413255;26;19996;-71
2024/04/09 05:56:27;;;;;;;8.05;5.22;;;18.70;98.10;;;;;;5409840;26;20007;-71
2024/04/09 05:59:13;;;;;;;8.57;5.05;;;18.70;98.00;;;;;;5410276;26;20018;-73
2024/04/09 06:01:59;;;;;;;7.72;4.93;;;18.80;98.00;;;;;;5404916;26;20502;-72
2024/04/09 06:04:45;;;;;;;14.13;5.82;;;18.90;97.90;;;;;;5412247;26;20072;-71
2024/04/09 06:07:31;;;;;;;5.80;4.30;;;19.00;97.90;;;;;;5408102;26;19996;-74
2024/04/09 06:10:18;;;;;;;15.75;5.88;;;19.00;97.80;;;;;;5411576;26;19992;-71
2024/04/09 06:13:04;;;;;;;15.27;5.30;;;19.10;97.70;;;;;;5412293;26;19999;-73
2024/04/09 06:15:50;;;;;;;7.82;5.32;;;19.20;97.70;;;;;;5412199;26;19999;-68
2024/04/09 06:18:36;;;;;;;6.85;4.28;;;19.30;97.60;;;;;;5378595;26;19992;-69
2024/04/09 06:21:22;;;;;;;8.55;5.07;;;19.40;97.60;;;;;;5405783;26;20007;-68
2024/04/09 06:24:08;;;;;;;12.30;5.13;;;19.40;97.50;;;;;;5391506;26;20094;-64
2024/04/09 06:26:54;;;;;;;7.97;4.85;;;19.50;97.50;;;;;;5397936;26;20447;-68
2024/04/09 06:29:41;;;;;;;12.32;4.78;;;19.60;97.30;;;;;;5409035;26;20460;-66
2024/04/09 06:32:27;;;;;;;9.00;4.93;;;19.70;97.40;;;;;;5412387;26;20018;-65
2024/04/09 06:35:13;;;;;;;9.13;4.85;;;19.80;97.30;;;;;;5409710;26;20443;-67
2024/04/09 06:37:59;;;;;;;11.57;4.20;;;19.90;97.30;;;;;;5400101;26;20007;-73
2024/04/09 06:40:47;;;;;;;8.38;5.15;;;20.00;97.50;;;;;;5405881;26;20050;-67
2024/04/09 06:43:33;;;;;;;9.38;5.00;;;20.10;97.10;;;;;;5408745;26;20007;-66
2024/04/09 06:46:19;;;;;;;15.02;5.10;;;20.10;96.90;;;;;;5417678;26;20466;-65
2024/04/09 06:49:05;;;;;;;17.50;4.72;;;20.20;96.80;;;;;;5402795;26;20470;-65
2024/04/09 06:51:51;;;;;;;7.47;4.32;;;20.30;96.60;;;;;;5412406;26;20324;-65
2024/04/09 06:54:38;;;;;;;7.07;4.93;;;20.30;96.50;;;;;;5412944;26;20010;-65
2024/04/09 06:57:23;;;;;;;6.75;4.30;;;20.40;96.50;;;;;;5408409;26;19996;-65
2024/04/09 07:00:10;;;;;;;9.88;4.28;;;20.40;96.40;;;;;;5381792;26;20032;-65
2024/04/09 07:02:57;;;;;;;8.95;4.50;;;20.50;96.40;;;;;;5408679;26;20081;-65
2024/04/09 07:05:43;;;;;;;9.05;4.40;;;20.60;96.40;;;;;;5410132;26;20007;-65
2024/04/09 07:08:29;;;;;;;7.53;4.57;;;20.60;96.20;;;;;;5384972;26;20077;-65
2024/04/09 07:11:15;;;;;;;8.35;4.10;;;20.70;96.20;;;;;;5407285;26;20019;-66
2024/04/09 07:14:01;;;;;;;7.72;5.00;;;20.70;96.10;;;;;;5401079;26;20331;-65
2024/04/09 07:16:47;;;;;;;7.82;4.82;;;20.80;96.10;;;;;;5406248;26;20023;-65
2024/04/09 07:19:33;;;;;;;5.95;4.53;;;20.80;96.10;;;;;;5401186;26;20324;-64
2024/04/09 07:22:19;;;;;;;11.98;4.85;;;20.90;96.20;;;;;;5398940;26;20000;-64
2024/04/09 07:25:05;;;;;;;8.23;4.85;;;21.00;96.00;;;;;;5393834;26;20000;-64
2024/04/09 07:27:51;;;;;;;9.05;4.70;;;21.00;95.90;;;;;;5397211;26;20011;-64
2024/04/09 07:30:37;;;;;;;12.85;5.20;;;21.10;95.80;;;;;;5399826;26;20002;-64
2024/04/09 07:33:24;;;;;;;10.35;4.95;;;21.10;95.70;;;;;;5404361;26;20015;-65
2024/04/09 07:36:10;;;;;;;5.88;3.70;;;21.20;95.70;;;;;;5401579;26;20623;-65
2024/04/09 07:38:56;;;;;;;6.10;3.80;;;21.30;95.50;;;;;;5391159;26;20505;-65
2024/04/09 07:41:42;;;;;;;8.10;3.85;;;21.40;95.50;;;;;;5407602;26;20373;-65
2024/04/09 07:44:28;;;;;;;8.50;3.60;;;21.50;95.40;;;;;;5412912;26;20523;-65
2024/04/09 07:47:14;;;;;;;5.88;3.75;;;21.50;95.20;;;;;;5411688;26;20015;-65
2024/04/09 07:50:00;;;;;;;9.70;3.63;;;21.50;95.20;;;;;;5410786;26;20428;-65
2024/04/09 07:52:46;;;;;;;7.25;3.58;;;21.60;95.10;;;;;;5406762;26;20073;-66
2024/04/09 07:55:32;;;;;;;9.13;3.45;;;21.70;95.00;;;;;;5399093;26;19997;-65
2024/04/09 07:58:18;;;;;;;8.93;3.88;;;21.70;94.90;;;;;;5411549;26;20072;-66
2024/04/09 08:01:04;;;;;;;11.50;4.07;;;21.90;94.90;;;;;;5405997;26;20007;-65
2024/04/09 08:03:50;;;;;;;6.25;3.38;;;22.00;94.90;;;;;;5378500;26;20012;-65
2024/04/09 08:06:36;;;;;;;7.20;3.47;;;22.00;94.60;;;;;;5400812;26;20003;-67
2024/04/09 08:09:22;;;;;;;6.15;3.35;;;22.10;94.50;;;;;;5383086;26;20080;-65
2024/04/09 08:12:08;;;;;;;4.30;2.60;;;22.20;94.30;;;;;;5410058;26;20011;-64
2024/04/09 08:14:54;;;;;;;4.90;2.90;;;22.30;94.40;;;;;;5399813;26;20046;-65
2024/04/09 08:17:42;;;;;;;7.00;3.10;;;22.40;94.00;;;;;;5406477;26;19996;-64
2024/04/09 08:20:28;;;;;;;4.70;2.85;;;22.50;93.90;;;;;;5408064;26;20008;-64
2024/04/09 08:23:14;;;;;;;6.07;2.83;;;22.60;93.80;;;;;;5411783;26;20000;-64
2024/04/09 08:26:00;;;;;;;6.65;3.05;;;22.60;93.60;;;;;;5402130;26;20471;-65
2024/04/09 08:28:46;;;;;;;7.47;3.10;;;22.70;93.70;;;;;;5413432;26;20381;-65
2024/04/09 08:31:32;;;;;;;6.80;3.28;;;22.70;93.60;;;;;;5409751;26;20010;-64
2024/04/09 08:34:19;;;;;;;7.45;3.13;;;22.80;93.30;;;;;;5413581;26;20008;-65
2024/04/09 08:37:06;;;;;;;5.88;2.78;;;22.90;93.20;;;;;;5396009;26;20000;-66
2024/04/09 08:39:54;;;;;;;8.55;3.10;;;22.90;93.00;;;;;;5410940;26;20356;-65
2024/04/09 08:42:42;;;;;;;6.75;2.67;;;23.00;93.00;;;;;;5395867;26;19996;-65
2024/04/09 08:45:30;;;;;;;7.47;3.47;;;23.00;92.70;;;;;;5413318;26;20459;-65
2024/04/09 08:48:17;;;;;;;4.25;3.17;;;23.10;92.60;;;;;;5404073;26;20131;-65
2024/04/09 08:51:05;;;;;;;3.67;2.72;;;23.20;92.60;;;;;;5407347;26;20025;-65
2024/04/09 08:53:51;;;;;;;11.80;3.55;;;23.20;92.30;;;;;;5413544;26;20023;-65
2024/04/09 08:56:37;;;;;;;3.28;2.50;;;23.30;92.30;;;;;;5408405;26;20006;-63
2024/04/09 08:59:23;;;;;;;5.47;3.63;;;23.30;92.20;;;;;;5412217;26;19995;-64
2024/04/09 09:02:13;;;;;;;3.50;2.63;;;23.40;92.20;;;;;;5399258;26;20069;-64
2024/04/09 09:04:59;;;;;;;4.50;2.95;;;23.50;92.20;;;;;;5410133;26;19999;-64
2024/04/09 09:07:56;;;;;;;4.53;2.95;;;23.50;92.10;;;;;;5399213;26;20076;-64
2024/04/09 09:10:53;;;;;;;8.23;3.50;;;23.60;91.90;;;;;;5409159;26;20027;-64
2024/04/09 09:13:39;;;;;;;4.28;3.17;;;23.70;91.80;;;;;;5399742;26;20323;-64
2024/04/09 09:16:25;;;;;;;4.95;3.38;;;23.80;91.60;;;;;;5411192;26;20343;-63
2024/04/09 09:19:16;;;;;;;3.42;2.60;;;23.90;91.60;;;;;;5412396;26;20412;-64
2024/04/09 09:22:09;;;;;;;3.85;2.95;;;24.00;91.60;;;;;;5405098;26;20027;-64
2024/04/09 09:24:59;;;;;;;4.55;2.28;;;24.10;91.20;;;;;;5414017;26;20335;-64
2024/04/09 09:27:45;;;;;;;5.20;2.58;;;24.20;91.10;;;;;;5410620;26;20027;-64
2024/04/09 09:30:42;;;;;;;4.40;2.80;;;24.30;90.90;;;;;;5413085;26;20665;-64
2024/04/09 09:33:31;;;;;;;5.25;2.67;;;24.40;90.80;;;;;;5409890;26;20014;-64
2024/04/09 09:36:18;;;;;;;6.05;3.33;;;24.40;90.60;;;;;;5409962;26;19999;-64
2024/04/09 09:39:04;;;;;;;5.32;2.63;;;24.50;90.40;;;;;;5374707;26;19995;-64
2024/04/09 09:41:54;;;;;;;6.30;2.65;;;24.60;90.30;;;;;;5404199;26;20017;-64
2024/04/09 09:44:42;;;;;;;5.03;3.35;;;24.70;90.20;;;;;;5409994;26;20011;-64
2024/04/09 09:47:28;;;;;;;7.53;3.08;;;24.80;90.10;;;;;;5413601;26;19999;-64
2024/04/09 09:50:14;;;;;;;6.43;2.92;;;24.90;89.70;;;;;;5406364;26;20556;-64
2024/04/09 09:53:01;;;;;;;6.03;2.92;;;24.90;89.40;;;;;;5404729;26;20000;-64
2024/04/09 09:55:52;;;;;;;5.00;2.70;;;25.00;89.10;;;;;;5410414;26;20451;-63
2024/04/09 09:58:39;;;;;;;5.07;3.28;;;25.10;88.90;;;;;;5414370;26;20471;-64
2024/04/09 10:01:27;;;;;;;3.72;2.47;;;25.10;88.60;;;;;;5412291;26;19995;-64
2024/04/09 10:04:15;;;;;;;7.32;2.92;;;25.20;88.50;;;;;;5407949;26;20765;-64
2024/04/09 10:07:04;;;;;;;5.10;3.03;;;25.30;88.50;;;;;;5403815;26;20000;-64
2024/04/09 10:09:50;;;;;;;7.13;2.83;;;25.30;88.50;;;;;;5401104;26;20012;-64
2024/04/09 10:12:37;;;;;;;8.18;2.70;;;25.30;88.30;;;;;;5384957;26;20002;-63
2024/04/09 10:15:30;;;;;;;6.50;2.67;;;25.40;88.10;;;;;;5406970;26;20014;-63
2024/04/09 10:18:37;;;;;;;7.45;2.55;;;25.50;87.70;;;;;;5386085;26;19999;-64
2024/04/09 10:21:27;;;;;;;6.28;2.80;;;25.60;87.60;;;;;;5409154;26;20015;-64
2024/04/09 10:24:14;;;;;;;3.97;1.95;;;25.60;86.90;;;;;;5407371;26;20003;-65
2024/04/09 10:27:01;;;;;;;9.45;3.13;;;25.60;86.30;;;;;;5393892;26;20077;-65
2024/04/09 10:29:54;;;;;;;7.32;2.53;;;25.80;85.70;;;;;;5408649;26;20014;-65
2024/04/09 10:32:40;;;;;;;6.93;3.30;;;25.80;85.70;;;;;;5410820;26;20007;-64
2024/04/09 10:35:27;;;;;;;5.88;2.67;;;25.80;85.60;;;;;;5405769;26;19999;-64
2024/04/09 10:38:14;;;;;;;2.72;2.20;;;25.90;85.20;;;;;;5409843;26;20118;-64
2024/04/09 10:41:01;;;;;;;4.85;2.67;;;25.90;84.50;;;;;;5406588;26;20015;-64
2024/04/09 10:43:47;;;;;;;3.95;2.38;;;26.00;84.60;;;;;;5405693;26;19999;-65
2024/04/09 10:46:32;;;;;;;3.95;2.85;;;26.00;84.80;;;;;;5408270;26;20000;-65
2024/04/09 10:49:19;;;;;;;5.22;2.78;;;26.10;84.40;;;;;;5400386;26;20000;-65
2024/04/09 10:52:05;;;;;;;4.32;2.63;;;26.10;84.40;;;;;;5389482;26;20047;-65
2024/04/09 10:54:51;;;;;;;12.13;3.22;;;26.20;84.20;;;;;;5385578;26;20014;-65
2024/04/09 10:57:38;;;;;;;5.35;2.25;;;26.20;83.90;;;;;;5402997;26;20022;-65
2024/04/09 11:00:24;;;;;;;4.05;2.47;;;26.20;83.80;;;;;;5411965;26;20011;-65
2024/04/09 11:03:10;;;;;;;5.07;2.50;;;26.30;83.10;;;;;;5406804;26;19999;-65
2024/04/09 11:05:56;;;;;;;8.82;2.83;;;26.30;83.20;;;;;;5424854;26;19999;-65
2024/04/09 11:08:42;;;;;;;5.57;2.28;;;26.40;83.10;;;;;;5410957;26;20014;-65
2024/04/09 11:11:28;;;;;;;5.07;2.83;;;26.40;83.00;;;;;;5408032;26;20011;-65
2024/04/09 11:14:14;;;;;;;4.60;2.53;;;26.50;82.80;;;;;;5404843;26;20004;-65
2024/04/09 11:17:00;;;;;;;12.88;3.20;;;26.50;82.80;;;;;;5404621;26;20123;-65
2024/04/09 11:19:46;;;;;;;6.05;2.42;;;26.60;82.70;;;;;;5411555;26;20075;-65
2024/04/09 11:22:32;;;;;;;17.25;3.30;;;26.60;82.80;;;;;;5409083;26;20011;-65
2024/04/09 11:25:19;;;;;;;5.30;2.28;;;26.70;82.30;;;;;;5395214;26;20069;-65
2024/04/09 11:28:05;;;;;;;7.93;2.90;;;26.80;82.30;;;;;;5387286;26;19996;-65
2024/04/09 11:30:55;;;;;;;8.93;3.10;;;26.80;81.70;;;;;;5385518;26;20010;-65
2024/04/09 11:33:44;;;;;;;5.93;3.03;;;26.90;81.70;;;;;;5407647;26;20084;-65
2024/04/09 11:36:30;;;;;;;7.97;2.78;;;27.00;81.40;;;;;;5408002;26;20007;-65
2024/04/09 11:39:20;;;;;;;5.32;3.00;;;27.00;80.90;;;;;;5411516;26;20000;-65
2024/04/09 11:42:06;;;;;;;6.40;2.80;;;27.00;80.40;;;;;;5409249;26;19996;-65
2024/04/09 11:44:59;;;;;;;7.03;3.22;;;27.10;80.20;;;;;;5404740;26;20011;-65
2024/04/09 11:47:45;;;;;;;4.65;2.72;;;27.10;79.70;;;;;;5403343;26;20010;-65
2024/04/09 11:50:32;;;;;;;6.72;3.28;;;27.10;79.40;;;;;;5389100;26;20068;-65
2024/04/09 11:53:19;;;;;;;4.28;2.65;;;27.20;79.20;;;;;;5383372;26;20011;-65
2024/04/09 11:56:04;;;;;;;5.50;3.13;;;27.20;79.00;;;;;;5396732;26;20032;-64
2024/04/09 11:58:51;;;;;;;9.70;3.65;;;27.20;79.60;;;;;;5406450;26;20027;-64
2024/04/09 12:01:37;;;;;;;9.25;2.97;;;27.30;79.60;;;;;;5401577;26;20000;-64
2024/04/09 12:04:23;;;;;;;5.60;3.00;;;27.30;79.40;;;;;;5409009;26;20379;-65
2024/04/09 12:07:09;;;;;;;11.73;3.08;;;27.30;78.60;;;;;;5412860;26;20466;-64
2024/04/09 12:09:55;;;;;;;9.45;3.28;;;27.40;78.30;;;;;;5407380;26;20011;-64
2024/04/09 12:12:41;;;;;;;9.70;2.75;;;27.40;77.50;;;;;;5385848;26;20011;-64
2024/04/09 12:15:28;;;;;;;7.78;3.10;;;27.50;77.40;;;;;;5409218;26;20007;-64
2024/04/09 12:18:14;;;;;;;5.28;3.35;;;27.50;77.00;;;;;;5401331;26;20335;-64
2024/04/09 12:21:00;;;;;;;22.95;3.92;;;27.60;76.50;;;;;;5412566;26;20015;-66
2024/04/09 12:23:46;;;;;;;11.45;3.38;;;27.60;76.20;;;;;;5379844;26;20019;-66
2024/04/09 12:26:32;;;;;;;8.73;3.03;;;27.70;75.90;;;;;;5389741;26;20425;-66
2024/04/09 12:29:18;;;;;;;5.38;3.08;;;27.70;75.60;;;;;;5409250;26;20011;-64
2024/04/09 12:32:06;;;;;;;7.18;3.08;;;27.70;75.50;;;;;;5411884;26;19991;-65
2024/04/09 12:34:52;;;;;;;9.85;2.58;;;27.70;75.00;;;;;;5407893;26;20007;-64
2024/04/09 12:37:38;;;;;;;7.25;3.35;;;27.70;74.80;;;;;;5398103;26;20064;-65
2024/04/09 12:40:24;;;;;;;6.90;2.92;;;27.60;74.60;;;;;;5413569;26;19996;-64
2024/04/09 12:43:10;;;;;;;6.88;3.22;;;27.60;74.90;;;;;;5403604;26;20003;-65
2024/04/09 12:45:57;;;;;;;6.20;2.67;;;27.60;75.20;;;;;;5408483;26;19996;-64
2024/04/09 12:48:43;;;;;;;7.97;4.45;;;27.60;75.30;;;;;;5410217;26;20053;-65
2024/04/09 12:51:30;;;;;;;10.57;2.92;;;27.60;75.50;;;;;;5379479;26;20008;-65
2024/04/09 12:54:16;;;;;;;7.90;3.22;;;27.60;75.70;;;;;;5395246;26;20008;-64
2024/04/09 12:57:02;;;;;;;8.20;4.07;;;27.60;75.80;;;;;;5404597;26;20003;-64
2024/04/09 12:59:48;;;;;;;34.35;11.07;;;27.70;75.90;;;;;;5409133;26;20439;-64
2024/04/09 13:02:35;;;;;;;22.50;9.30;;;27.70;76.10;;;;;;5402737;26;20006;-64
2024/04/09 13:05:21;;;;;;;21.23;8.40;;;27.70;76.00;;;;;;5400706;26;19991;-65
2024/04/09 13:08:07;;;;;;;25.08;10.95;;;27.70;76.00;;;;;;5392695;26;19991;-64
2024/04/09 13:10:53;;;;;;;31.60;13.15;;;27.70;76.20;;;;;;5412972;26;20497;-64
2024/04/09 13:13:39;;;;;;;23.55;7.13;;;27.70;76.10;;;;;;5409964;26;19996;-65
2024/04/09 13:16:25;;;;;;;18.77;5.18;;;27.70;75.70;;;;;;5411535;26;20071;-64
2024/04/09 13:19:12;;;;;;;13.52;6.05;;;27.70;75.40;;;;;;5404429;26;20458;-70
2024/04/09 13:21:58;;;;;;;12.95;4.53;;;27.70;75.60;;;;;;5409605;26;20010;-71
2024/04/09 13:24:44;;;;;;;9.23;4.50;;;27.70;75.10;;;;;;5399771;26;20366;-70
2024/04/09 13:27:30;;;;;;;15.60;5.00;;;27.60;73.80;;;;;;5393660;26;20014;-70
2024/04/09 13:30:16;;;;;;;16.42;3.95;;;27.60;72.70;;;;;;5402569;26;20478;-70
2024/04/09 13:33:03;;;;;;;11.98;4.38;;;27.40;71.60;;;;;;5402504;26;19993;-71
2024/04/09 13:35:50;;;;;;;13.57;4.85;;;27.30;71.40;;;;;;5391149;26;20073;-72
2024/04/09 13:38:36;;;;;;;20.45;3.83;;;27.20;69.70;;;;;;5407246;26;20013;-71
2024/04/09 13:41:22;;;;;;;13.13;4.10;;;27.10;68.00;;;;;;5388592;26;19995;-71
2024/04/09 13:44:08;;;;;;;10.82;4.75;;;27.00;67.40;;;;;;5404968;26;20007;-72
2024/04/09 13:46:55;;;;;;;14.75;4.38;;;26.90;67.70;;;;;;5407444;26;19995;-66
2024/04/09 13:49:42;;;;;;;24.67;4.72;;;26.90;67.90;;;;;;5403173;26;20076;-66
2024/04/09 13:52:28;;;;;;;16.92;4.70;;;27.00;68.20;;;;;;5387130;26;20010;-66
2024/04/09 13:55:14;;;;;;;14.90;4.28;;;27.10;68.60;;;;;;5406530;26;20003;-65
2024/04/09 13:58:00;;;;;;;21.27;4.72;;;27.10;69.20;;;;;;5406348;26;20448;-66
2024/04/09 14:00:46;;;;;;;15.65;4.50;;;27.10;69.90;;;;;;5391888;26;20008;-66
2024/04/09 14:03:32;;;;;;;9.88;3.97;;;27.00;70.50;;;;;;5400250;26;20001;-66
2024/04/09 14:06:18;;;;;;;9.45;3.75;;;26.80;71.10;;;;;;5395725;26;20065;-66
2024/04/09 14:09:04;;;;;;;15.30;3.67;;;26.80;72.10;;;;;;5402686;26;20000;-65
2024/04/09 14:11:50;;;;;;;12.18;3.90;;;26.60;73.00;;;;;;5411644;26;20329;-66
2024/04/09 14:14:36;;;;;;;12.80;3.20;;;26.60;74.20;;;;;;5408658;26;20004;-67
2024/04/09 14:17:22;;;;;;;15.18;3.33;;;26.60;73.70;;;;;;5410000;26;20003;-65
2024/04/09 14:20:09;;;;;;;6.45;2.97;;;26.50;73.60;;;;;;5378119;26;20452;-66
2024/04/09 14:22:55;;;;;;;14.07;4.18;;;26.30;73.70;;;;;;5381969;26;20486;-65